sensor_id;sensor_type;location;lat;lon;timestamp;P1;durP1;ratioP1;P2;durP2;ratioP2
17141;SDS011;32805;53.556;9.944;2023-07-24T00:02:05;4.70;;;3.40;;
17141;SDS011;32805;53.556;9.944;2023-07-24T00:04:33;4.63;;;3.40;;
17141;SDS011;32805;53.556;9.944;2023-07-24T00:07:01;4.28;;;3.88;;
17141;SDS011;32805;53.556;9.944;2023-07-24T00:09:30;4.95;;;3.78;;
17141;SDS011;32805;53.556;9.944;2023-07-24T00:11:58;4.90;;;3.65;;
17141;SDS011;32805;53.556;9.944;2023-07-24T00:14:26;4.35;;;3.58;;
17141;SDS011;32805;53.556;9.944;2023-07-24T00:16:54;4.35;;;3.45;;
17141;SDS011;32805;53.556;9.944;2023-07-24T00:19:21;5.50;;;3.88;;
17141;SDS011;32805;53.556;9.944;2023-07-24T00:22:01;4.68;;;3.75;;
17141;SDS011;32805;53.556;9.944;2023-07-24T00:24:30;5.53;;;3.55;;
17141;SDS011;32805;53.556;9.944;2023-07-24T00:27:02;5.22;;;3.60;;
17141;SDS011;32805;53.556;9.944;2023-07-24T00:29:30;4.82;;;3.88;;
17141;SDS011;32805;53.556;9.944;2023-07-24T00:31:57;3.80;;;3.40;;
17141;SDS011;32805;53.556;9.944;2023-07-24T00:34:25;5.07;;;3.55;;
17141;SDS011;32805;53.556;9.944;2023-07-24T00:36:55;6.03;;;4.13;;
17141;SDS011;32805;53.556;9.944;2023-07-24T00:39:23;7.03;;;4.43;;
17141;SDS011;32805;53.556;9.944;2023-07-24T00:41:56;4.43;;;4.03;;
17141;SDS011;32805;53.556;9.944;2023-07-24T00:44:24;4.88;;;4.38;;
17141;SDS011;32805;53.556;9.944;2023-07-24T00:46:53;4.70;;;4.10;;
17141;SDS011;32805;53.556;9.944;2023-07-24T00:49:21;7.18;;;5.28;;
17141;SDS011;32805;53.556;9.944;2023-07-24T00:51:49;6.50;;;4.50;;
17141;SDS011;32805;53.556;9.944;2023-07-24T00:54:17;4.80;;;4.20;;
17141;SDS011;32805;53.556;9.944;2023-07-24T00:56:45;5.57;;;4.22;;
17141;SDS011;32805;53.556;9.944;2023-07-24T00:59:15;5.88;;;4.70;;
17141;SDS011;32805;53.556;9.944;2023-07-24T01:01:43;6.40;;;4.35;;
17141;SDS011;32805;53.556;9.944;2023-07-24T01:04:11;5.32;;;4.40;;
17141;SDS011;32805;53.556;9.944;2023-07-24T01:06:40;5.13;;;3.72;;
17141;SDS011;32805;53.556;9.944;2023-07-24T01:09:08;7.30;;;4.28;;
17141;SDS011;32805;53.556;9.944;2023-07-24T01:11:37;5.07;;;3.88;;
17141;SDS011;32805;53.556;9.944;2023-07-24T01:14:12;5.05;;;3.90;;
17141;SDS011;32805;53.556;9.944;2023-07-24T01:16:47;4.47;;;3.95;;
17141;SDS011;32805;53.556;9.944;2023-07-24T01:19:16;5.68;;;3.92;;
17141;SDS011;32805;53.556;9.944;2023-07-24T01:22:00;6.45;;;4.70;;
17141;SDS011;32805;53.556;9.944;2023-07-24T01:24:35;5.00;;;4.50;;
17141;SDS011;32805;53.556;9.944;2023-07-24T01:27:17;5.10;;;3.75;;
17141;SDS011;32805;53.556;9.944;2023-07-24T01:29:47;4.60;;;4.10;;
17141;SDS011;32805;53.556;9.944;2023-07-24T01:32:15;5.30;;;4.15;;
17141;SDS011;32805;53.556;9.944;2023-07-24T01:34:43;6.13;;;4.18;;
17141;SDS011;32805;53.556;9.944;2023-07-24T01:37:10;5.78;;;4.15;;
17141;SDS011;32805;53.556;9.944;2023-07-24T01:39:40;4.63;;;4.10;;
17141;SDS011;32805;53.556;9.944;2023-07-24T01:42:09;5.93;;;4.45;;
17141;SDS011;32805;53.556;9.944;2023-07-24T01:44:39;5.65;;;4.05;;
17141;SDS011;32805;53.556;9.944;2023-07-24T01:47:06;5.22;;;3.75;;
17141;SDS011;32805;53.556;9.944;2023-07-24T01:49:34;4.95;;;3.80;;
17141;SDS011;32805;53.556;9.944;2023-07-24T01:52:02;4.88;;;4.40;;
17141;SDS011;32805;53.556;9.944;2023-07-24T01:54:30;8.27;;;5.10;;
17141;SDS011;32805;53.556;9.944;2023-07-24T01:56:58;5.38;;;4.40;;
17141;SDS011;32805;53.556;9.944;2023-07-24T01:59:25;6.10;;;4.55;;
17141;SDS011;32805;53.556;9.944;2023-07-24T02:01:54;5.00;;;4.40;;
17141;SDS011;32805;53.556;9.944;2023-07-24T02:04:22;6.88;;;4.70;;
17141;SDS011;32805;53.556;9.944;2023-07-24T02:06:50;4.60;;;4.18;;
17141;SDS011;32805;53.556;9.944;2023-07-24T02:09:18;5.13;;;4.25;;
17141;SDS011;32805;53.556;9.944;2023-07-24T02:11:46;5.82;;;4.40;;
17141;SDS011;32805;53.556;9.944;2023-07-24T02:14:14;5.00;;;4.55;;
17141;SDS011;32805;53.556;9.944;2023-07-24T02:16:43;4.63;;;4.13;;
17141;SDS011;32805;53.556;9.944;2023-07-24T02:19:12;5.03;;;4.22;;
17141;SDS011;32805;53.556;9.944;2023-07-24T02:21:40;4.57;;;3.95;;
17141;SDS011;32805;53.556;9.944;2023-07-24T02:24:08;5.97;;;4.50;;
17141;SDS011;32805;53.556;9.944;2023-07-24T02:26:35;6.97;;;5.63;;
17141;SDS011;32805;53.556;9.944;2023-07-24T02:29:03;4.90;;;4.38;;
17141;SDS011;32805;53.556;9.944;2023-07-24T02:31:31;5.13;;;4.60;;
17141;SDS011;32805;53.556;9.944;2023-07-24T02:33:58;4.63;;;4.22;;
17141;SDS011;32805;53.556;9.944;2023-07-24T02:36:27;5.45;;;4.95;;
17141;SDS011;32805;53.556;9.944;2023-07-24T02:38:55;5.30;;;4.70;;
17141;SDS011;32805;53.556;9.944;2023-07-24T02:41:23;8.50;;;4.85;;
17141;SDS011;32805;53.556;9.944;2023-07-24T02:43:50;5.13;;;4.47;;
17141;SDS011;32805;53.556;9.944;2023-07-24T02:46:18;5.72;;;5.13;;
17141;SDS011;32805;53.556;9.944;2023-07-24T02:48:46;5.55;;;4.65;;
17141;SDS011;32805;53.556;9.944;2023-07-24T02:51:13;6.30;;;5.15;;
17141;SDS011;32805;53.556;9.944;2023-07-24T02:53:42;5.68;;;4.75;;
17141;SDS011;32805;53.556;9.944;2023-07-24T02:56:10;5.18;;;4.57;;
17141;SDS011;32805;53.556;9.944;2023-07-24T02:58:38;5.65;;;4.93;;
17141;SDS011;32805;53.556;9.944;2023-07-24T03:01:06;5.65;;;5.00;;
17141;SDS011;32805;53.556;9.944;2023-07-24T03:03:34;6.13;;;5.53;;
17141;SDS011;32805;53.556;9.944;2023-07-24T03:06:02;5.35;;;4.85;;
17141;SDS011;32805;53.556;9.944;2023-07-24T03:08:31;5.25;;;4.70;;
17141;SDS011;32805;53.556;9.944;2023-07-24T03:11:00;4.60;;;4.07;;
17141;SDS011;32805;53.556;9.944;2023-07-24T03:13:32;5.03;;;4.55;;
17141;SDS011;32805;53.556;9.944;2023-07-24T03:15:59;5.63;;;4.40;;
17141;SDS011;32805;53.556;9.944;2023-07-24T03:18:27;6.35;;;4.80;;
17141;SDS011;32805;53.556;9.944;2023-07-24T03:20:56;4.68;;;4.25;;
17141;SDS011;32805;53.556;9.944;2023-07-24T03:23:24;5.57;;;4.97;;
17141;SDS011;32805;53.556;9.944;2023-07-24T03:25:52;4.75;;;4.30;;
17141;SDS011;32805;53.556;9.944;2023-07-24T03:28:21;6.38;;;4.88;;
17141;SDS011;32805;53.556;9.944;2023-07-24T03:30:49;5.28;;;4.63;;
17141;SDS011;32805;53.556;9.944;2023-07-24T03:33:16;6.22;;;4.93;;
17141;SDS011;32805;53.556;9.944;2023-07-24T03:35:44;6.80;;;4.88;;
17141;SDS011;32805;53.556;9.944;2023-07-24T03:38:12;5.53;;;4.93;;
17141;SDS011;32805;53.556;9.944;2023-07-24T03:40:39;4.97;;;4.50;;
17141;SDS011;32805;53.556;9.944;2023-07-24T03:43:07;6.07;;;4.72;;
17141;SDS011;32805;53.556;9.944;2023-07-24T03:45:37;6.78;;;4.38;;
17141;SDS011;32805;53.556;9.944;2023-07-24T03:48:05;4.88;;;4.38;;
17141;SDS011;32805;53.556;9.944;2023-07-24T03:50:33;5.72;;;4.85;;
17141;SDS011;32805;53.556;9.944;2023-07-24T03:53:00;8.20;;;5.00;;
17141;SDS011;32805;53.556;9.944;2023-07-24T03:55:28;7.05;;;5.32;;
17141;SDS011;32805;53.556;9.944;2023-07-24T03:57:55;5.10;;;4.57;;
17141;SDS011;32805;53.556;9.944;2023-07-24T04:00:23;6.65;;;5.70;;
17141;SDS011;32805;53.556;9.944;2023-07-24T04:02:52;7.20;;;6.20;;
17141;SDS011;32805;53.556;9.944;2023-07-24T04:05:20;8.15;;;6.03;;
17141;SDS011;32805;53.556;9.944;2023-07-24T04:07:48;7.85;;;6.05;;
17141;SDS011;32805;53.556;9.944;2023-07-24T04:10:15;6.88;;;6.10;;
17141;SDS011;32805;53.556;9.944;2023-07-24T04:12:43;9.02;;;5.43;;
17141;SDS011;32805;53.556;9.944;2023-07-24T04:15:10;8.25;;;6.10;;
17141;SDS011;32805;53.556;9.944;2023-07-24T04:17:38;7.43;;;6.32;;
17141;SDS011;32805;53.556;9.944;2023-07-24T04:20:10;7.75;;;6.15;;
17141;SDS011;32805;53.556;9.944;2023-07-24T04:22:38;7.25;;;6.43;;
17141;SDS011;32805;53.556;9.944;2023-07-24T04:25:06;6.05;;;5.28;;
17141;SDS011;32805;53.556;9.944;2023-07-24T04:27:34;7.25;;;5.88;;
17141;SDS011;32805;53.556;9.944;2023-07-24T04:30:02;6.93;;;5.72;;
17141;SDS011;32805;53.556;9.944;2023-07-24T04:32:30;8.35;;;6.50;;
17141;SDS011;32805;53.556;9.944;2023-07-24T04:34:58;7.47;;;6.00;;
17141;SDS011;32805;53.556;9.944;2023-07-24T04:37:27;8.77;;;6.70;;
17141;SDS011;32805;53.556;9.944;2023-07-24T04:39:55;8.13;;;6.03;;
17141;SDS011;32805;53.556;9.944;2023-07-24T04:42:22;6.85;;;5.38;;
17141;SDS011;32805;53.556;9.944;2023-07-24T04:44:50;7.50;;;5.47;;
17141;SDS011;32805;53.556;9.944;2023-07-24T04:47:18;8.15;;;5.15;;
17141;SDS011;32805;53.556;9.944;2023-07-24T04:49:45;10.35;;;7.97;;
17141;SDS011;32805;53.556;9.944;2023-07-24T04:52:13;14.18;;;10.38;;
17141;SDS011;32805;53.556;9.944;2023-07-24T04:54:42;14.55;;;9.20;;
17141;SDS011;32805;53.556;9.944;2023-07-24T04:57:09;6.88;;;5.65;;
17141;SDS011;32805;53.556;9.944;2023-07-24T04:59:37;8.65;;;6.38;;
17141;SDS011;32805;53.556;9.944;2023-07-24T05:02:05;6.07;;;4.53;;
17141;SDS011;32805;53.556;9.944;2023-07-24T05:04:32;6.68;;;4.78;;
17141;SDS011;32805;53.556;9.944;2023-07-24T05:07:00;6.43;;;5.32;;
17141;SDS011;32805;53.556;9.944;2023-07-24T05:09:28;7.30;;;5.10;;
17141;SDS011;32805;53.556;9.944;2023-07-24T05:11:57;12.13;;;8.50;;
17141;SDS011;32805;53.556;9.944;2023-07-24T05:14:24;5.53;;;4.82;;
17141;SDS011;32805;53.556;9.944;2023-07-24T05:16:52;9.20;;;6.13;;
17141;SDS011;32805;53.556;9.944;2023-07-24T05:19:20;9.57;;;6.25;;
17141;SDS011;32805;53.556;9.944;2023-07-24T05:21:47;6.82;;;5.18;;
17141;SDS011;32805;53.556;9.944;2023-07-24T05:24:15;5.78;;;5.05;;
17141;SDS011;32805;53.556;9.944;2023-07-24T05:26:43;8.65;;;5.05;;
17141;SDS011;32805;53.556;9.944;2023-07-24T05:29:12;5.32;;;4.68;;
17141;SDS011;32805;53.556;9.944;2023-07-24T05:31:39;12.07;;;8.07;;
17141;SDS011;32805;53.556;9.944;2023-07-24T05:34:07;12.23;;;8.57;;
17141;SDS011;32805;53.556;9.944;2023-07-24T05:36:35;5.35;;;4.68;;
17141;SDS011;32805;53.556;9.944;2023-07-24T05:39:02;6.22;;;5.00;;
17141;SDS011;32805;53.556;9.944;2023-07-24T05:41:30;7.22;;;5.05;;
17141;SDS011;32805;53.556;9.944;2023-07-24T05:43:58;6.90;;;4.75;;
17141;SDS011;32805;53.556;9.944;2023-07-24T05:46:27;6.57;;;4.35;;
17141;SDS011;32805;53.556;9.944;2023-07-24T05:48:55;7.03;;;5.50;;
17141;SDS011;32805;53.556;9.944;2023-07-24T05:51:23;8.80;;;6.13;;
17141;SDS011;32805;53.556;9.944;2023-07-24T05:53:51;6.82;;;4.45;;
17141;SDS011;32805;53.556;9.944;2023-07-24T05:56:18;6.65;;;4.97;;
17141;SDS011;32805;53.556;9.944;2023-07-24T05:58:46;7.50;;;4.97;;
17141;SDS011;32805;53.556;9.944;2023-07-24T06:01:14;6.65;;;4.35;;
17141;SDS011;32805;53.556;9.944;2023-07-24T06:03:43;7.55;;;5.70;;
17141;SDS011;32805;53.556;9.944;2023-07-24T06:06:12;5.75;;;5.25;;
17141;SDS011;32805;53.556;9.944;2023-07-24T06:08:40;9.20;;;5.93;;
17141;SDS011;32805;53.556;9.944;2023-07-24T06:11:08;7.18;;;5.88;;
17141;SDS011;32805;53.556;9.944;2023-07-24T06:13:36;10.63;;;5.80;;
17141;SDS011;32805;53.556;9.944;2023-07-24T06:16:05;5.90;;;4.97;;
17141;SDS011;32805;53.556;9.944;2023-07-24T06:18:33;5.72;;;4.25;;
17141;SDS011;32805;53.556;9.944;2023-07-24T06:21:02;8.10;;;6.53;;
17141;SDS011;32805;53.556;9.944;2023-07-24T06:23:30;7.78;;;5.72;;
17141;SDS011;32805;53.556;9.944;2023-07-24T06:25:58;6.50;;;5.80;;
17141;SDS011;32805;53.556;9.944;2023-07-24T06:28:25;9.70;;;6.45;;
17141;SDS011;32805;53.556;9.944;2023-07-24T06:30:55;5.45;;;4.95;;
17141;SDS011;32805;53.556;9.944;2023-07-24T06:33:22;5.60;;;4.75;;
17141;SDS011;32805;53.556;9.944;2023-07-24T06:35:50;6.55;;;4.65;;
17141;SDS011;32805;53.556;9.944;2023-07-24T06:38:19;6.70;;;4.95;;
17141;SDS011;32805;53.556;9.944;2023-07-24T06:40:48;5.88;;;4.88;;
17141;SDS011;32805;53.556;9.944;2023-07-24T06:43:16;5.35;;;4.72;;
17141;SDS011;32805;53.556;9.944;2023-07-24T06:45:44;5.90;;;4.53;;
17141;SDS011;32805;53.556;9.944;2023-07-24T06:48:12;7.82;;;7.03;;
17141;SDS011;32805;53.556;9.944;2023-07-24T06:50:39;6.13;;;5.13;;
17141;SDS011;32805;53.556;9.944;2023-07-24T06:53:07;8.30;;;6.57;;
17141;SDS011;32805;53.556;9.944;2023-07-24T06:55:36;5.57;;;4.72;;
17141;SDS011;32805;53.556;9.944;2023-07-24T06:58:04;7.07;;;6.18;;
17141;SDS011;32805;53.556;9.944;2023-07-24T07:00:31;9.02;;;7.25;;
17141;SDS011;32805;53.556;9.944;2023-07-24T07:02:59;8.60;;;7.55;;
17141;SDS011;32805;53.556;9.944;2023-07-24T07:05:27;7.05;;;6.35;;
17141;SDS011;32805;53.556;9.944;2023-07-24T07:07:54;6.82;;;6.13;;
17141;SDS011;32805;53.556;9.944;2023-07-24T07:10:22;7.88;;;6.80;;
17141;SDS011;32805;53.556;9.944;2023-07-24T07:12:52;9.30;;;6.80;;
17141;SDS011;32805;53.556;9.944;2023-07-24T07:15:19;10.05;;;8.00;;
17141;SDS011;32805;53.556;9.944;2023-07-24T07:17:47;8.00;;;7.05;;
17141;SDS011;32805;53.556;9.944;2023-07-24T07:20:15;10.15;;;8.00;;
17141;SDS011;32805;53.556;9.944;2023-07-24T07:22:43;9.02;;;7.57;;
17141;SDS011;32805;53.556;9.944;2023-07-24T07:25:10;8.07;;;6.88;;
17141;SDS011;32805;53.556;9.944;2023-07-24T07:27:38;8.52;;;6.80;;
17141;SDS011;32805;53.556;9.944;2023-07-24T07:30:07;7.25;;;6.53;;
17141;SDS011;32805;53.556;9.944;2023-07-24T07:32:35;5.45;;;4.95;;
17141;SDS011;32805;53.556;9.944;2023-07-24T07:35:04;6.85;;;6.15;;
17141;SDS011;32805;53.556;9.944;2023-07-24T07:37:32;5.15;;;4.72;;
17141;SDS011;32805;53.556;9.944;2023-07-24T07:39:59;8.48;;;6.32;;
17141;SDS011;32805;53.556;9.944;2023-07-24T07:42:27;5.38;;;4.88;;
17141;SDS011;32805;53.556;9.944;2023-07-24T07:44:55;8.07;;;6.80;;
17141;SDS011;32805;53.556;9.944;2023-07-24T07:47:24;6.07;;;5.53;;
17141;SDS011;32805;53.556;9.944;2023-07-24T07:49:51;6.80;;;5.72;;
17141;SDS011;32805;53.556;9.944;2023-07-24T07:52:19;6.28;;;5.68;;
17141;SDS011;32805;53.556;9.944;2023-07-24T07:54:48;6.35;;;5.43;;
17141;SDS011;32805;53.556;9.944;2023-07-24T07:57:16;7.05;;;5.35;;
17141;SDS011;32805;53.556;9.944;2023-07-24T07:59:44;5.80;;;5.30;;
17141;SDS011;32805;53.556;9.944;2023-07-24T08:02:11;6.80;;;6.10;;
17141;SDS011;32805;53.556;9.944;2023-07-24T08:04:40;6.30;;;5.70;;
17141;SDS011;32805;53.556;9.944;2023-07-24T08:07:08;5.63;;;5.13;;
17141;SDS011;32805;53.556;9.944;2023-07-24T08:09:36;6.50;;;5.90;;
17141;SDS011;32805;53.556;9.944;2023-07-24T08:12:04;9.07;;;7.40;;
17141;SDS011;32805;53.556;9.944;2023-07-24T08:14:34;7.22;;;6.63;;
17141;SDS011;32805;53.556;9.944;2023-07-24T08:17:01;6.15;;;5.65;;
17141;SDS011;32805;53.556;9.944;2023-07-24T08:19:29;6.80;;;6.15;;
17141;SDS011;32805;53.556;9.944;2023-07-24T08:21:58;6.82;;;6.20;;
17141;SDS011;32805;53.556;9.944;2023-07-24T08:24:26;8.30;;;7.20;;
17141;SDS011;32805;53.556;9.944;2023-07-24T08:26:54;7.78;;;6.97;;
17141;SDS011;32805;53.556;9.944;2023-07-24T08:29:21;7.18;;;6.47;;
17141;SDS011;32805;53.556;9.944;2023-07-24T08:31:49;8.68;;;7.18;;
17141;SDS011;32805;53.556;9.944;2023-07-24T08:34:17;7.15;;;6.43;;
17141;SDS011;32805;53.556;9.944;2023-07-24T08:36:44;7.65;;;6.78;;
17141;SDS011;32805;53.556;9.944;2023-07-24T08:39:13;7.10;;;6.40;;
17141;SDS011;32805;53.556;9.944;2023-07-24T08:41:41;7.03;;;6.43;;
17141;SDS011;32805;53.556;9.944;2023-07-24T08:44:09;8.20;;;7.40;;
17141;SDS011;32805;53.556;9.944;2023-07-24T08:46:36;6.55;;;5.85;;
17141;SDS011;32805;53.556;9.944;2023-07-24T08:49:10;6.95;;;6.35;;
17141;SDS011;32805;53.556;9.944;2023-07-24T08:51:39;6.65;;;6.00;;
17141;SDS011;32805;53.556;9.944;2023-07-24T08:54:07;7.63;;;6.82;;
17141;SDS011;32805;53.556;9.944;2023-07-24T08:56:37;7.10;;;6.50;;
17141;SDS011;32805;53.556;9.944;2023-07-24T08:59:06;7.85;;;7.15;;
17141;SDS011;32805;53.556;9.944;2023-07-24T09:01:34;7.43;;;6.72;;
17141;SDS011;32805;53.556;9.944;2023-07-24T09:04:01;7.22;;;6.47;;
17141;SDS011;32805;53.556;9.944;2023-07-24T09:06:29;7.97;;;7.18;;
17141;SDS011;32805;53.556;9.944;2023-07-24T09:08:57;7.15;;;6.50;;
17141;SDS011;32805;53.556;9.944;2023-07-24T09:11:25;8.02;;;7.28;;
17141;SDS011;32805;53.556;9.944;2023-07-24T09:13:54;7.75;;;6.90;;
17141;SDS011;32805;53.556;9.944;2023-07-24T09:16:22;7.85;;;7.05;;
17141;SDS011;32805;53.556;9.944;2023-07-24T09:18:51;6.95;;;6.35;;
17141;SDS011;32805;53.556;9.944;2023-07-24T09:21:27;6.47;;;5.88;;
17141;SDS011;32805;53.556;9.944;2023-07-24T09:23:56;7.32;;;6.47;;
17141;SDS011;32805;53.556;9.944;2023-07-24T09:26:24;8.07;;;7.28;;
17141;SDS011;32805;53.556;9.944;2023-07-24T09:28:55;6.95;;;6.35;;
17141;SDS011;32805;53.556;9.944;2023-07-24T09:31:33;7.32;;;6.63;;
17141;SDS011;32805;53.556;9.944;2023-07-24T09:34:01;6.78;;;6.18;;
17141;SDS011;32805;53.556;9.944;2023-07-24T09:36:36;8.52;;;7.30;;
17141;SDS011;32805;53.556;9.944;2023-07-24T09:39:04;7.63;;;6.93;;
17141;SDS011;32805;53.556;9.944;2023-07-24T09:41:34;7.78;;;6.97;;
17141;SDS011;32805;53.556;9.944;2023-07-24T09:44:03;15.43;;;12.75;;
17141;SDS011;32805;53.556;9.944;2023-07-24T09:46:31;14.00;;;11.68;;
17141;SDS011;32805;53.556;9.944;2023-07-24T09:49:10;8.13;;;7.32;;
17141;SDS011;32805;53.556;9.944;2023-07-24T09:51:39;7.28;;;6.55;;
17141;SDS011;32805;53.556;9.944;2023-07-24T09:54:14;8.75;;;7.07;;
17141;SDS011;32805;53.556;9.944;2023-07-24T09:56:45;7.53;;;6.07;;
17141;SDS011;32805;53.556;9.944;2023-07-24T09:59:27;6.97;;;6.38;;
17141;SDS011;32805;53.556;9.944;2023-07-24T10:01:56;7.05;;;6.32;;
17141;SDS011;32805;53.556;9.944;2023-07-24T10:04:24;6.82;;;6.22;;
17141;SDS011;32805;53.556;9.944;2023-07-24T10:06:52;8.05;;;7.25;;
17141;SDS011;32805;53.556;9.944;2023-07-24T10:09:20;7.57;;;6.88;;
17141;SDS011;32805;53.556;9.944;2023-07-24T10:11:54;8.82;;;6.70;;
17141;SDS011;32805;53.556;9.944;2023-07-24T10:14:22;7.65;;;6.30;;
17141;SDS011;32805;53.556;9.944;2023-07-24T10:16:51;6.85;;;6.18;;
17141;SDS011;32805;53.556;9.944;2023-07-24T10:19:22;7.40;;;6.15;;
17141;SDS011;32805;53.556;9.944;2023-07-24T10:21:50;7.47;;;5.93;;
17141;SDS011;32805;53.556;9.944;2023-07-24T10:24:18;7.80;;;6.25;;
17141;SDS011;32805;53.556;9.944;2023-07-24T10:27:07;6.88;;;6.25;;
17141;SDS011;32805;53.556;9.944;2023-07-24T10:29:35;8.23;;;5.78;;
17141;SDS011;32805;53.556;9.944;2023-07-24T10:32:05;6.68;;;6.03;;
17141;SDS011;32805;53.556;9.944;2023-07-24T10:34:44;7.25;;;6.28;;
17141;SDS011;32805;53.556;9.944;2023-07-24T10:37:12;7.57;;;6.82;;
17141;SDS011;32805;53.556;9.944;2023-07-24T10:39:40;8.23;;;6.75;;
17141;SDS011;32805;53.556;9.944;2023-07-24T10:42:08;5.88;;;5.30;;
17141;SDS011;32805;53.556;9.944;2023-07-24T10:44:37;6.63;;;5.97;;
17141;SDS011;32805;53.556;9.944;2023-07-24T10:47:06;6.97;;;6.28;;
17141;SDS011;32805;53.556;9.944;2023-07-24T10:49:34;6.95;;;6.25;;
17141;SDS011;32805;53.556;9.944;2023-07-24T10:52:02;7.03;;;6.18;;
17141;SDS011;32805;53.556;9.944;2023-07-24T10:54:31;6.35;;;5.75;;
17141;SDS011;32805;53.556;9.944;2023-07-24T10:56:59;6.78;;;6.07;;
17141;SDS011;32805;53.556;9.944;2023-07-24T11:02:14;6.10;;;5.60;;
17141;SDS011;32805;53.556;9.944;2023-07-24T11:04:44;7.38;;;5.45;;
17141;SDS011;32805;53.556;9.944;2023-07-24T11:07:12;5.72;;;5.22;;
17141;SDS011;32805;53.556;9.944;2023-07-24T11:09:40;6.10;;;5.50;;
17141;SDS011;32805;53.556;9.944;2023-07-24T11:12:12;5.82;;;5.22;;
17141;SDS011;32805;53.556;9.944;2023-07-24T11:14:47;6.55;;;5.88;;
17141;SDS011;32805;53.556;9.944;2023-07-24T11:17:17;5.53;;;4.97;;
17141;SDS011;32805;53.556;9.944;2023-07-24T11:19:44;5.07;;;4.60;;
17141;SDS011;32805;53.556;9.944;2023-07-24T11:22:13;5.72;;;5.15;;
17141;SDS011;32805;53.556;9.944;2023-07-24T11:24:42;6.80;;;5.13;;
17141;SDS011;32805;53.556;9.944;2023-07-24T11:27:12;6.05;;;5.32;;
17141;SDS011;32805;53.556;9.944;2023-07-24T11:29:41;6.47;;;5.45;;
17141;SDS011;32805;53.556;9.944;2023-07-24T11:32:09;5.88;;;5.38;;
17141;SDS011;32805;53.556;9.944;2023-07-24T11:34:38;5.97;;;5.40;;
17141;SDS011;32805;53.556;9.944;2023-07-24T11:37:06;5.82;;;5.25;;
17141;SDS011;32805;53.556;9.944;2023-07-24T11:39:34;6.03;;;5.43;;
17141;SDS011;32805;53.556;9.944;2023-07-24T11:42:01;7.00;;;5.68;;
17141;SDS011;32805;53.556;9.944;2023-07-24T11:44:29;6.90;;;6.20;;
17141;SDS011;32805;53.556;9.944;2023-07-24T11:47:00;6.60;;;6.00;;
17141;SDS011;32805;53.556;9.944;2023-07-24T11:49:29;7.35;;;6.65;;
17141;SDS011;32805;53.556;9.944;2023-07-24T11:52:02;6.47;;;5.82;;
17141;SDS011;32805;53.556;9.944;2023-07-24T11:54:33;6.07;;;5.57;;
17141;SDS011;32805;53.556;9.944;2023-07-24T11:57:01;6.18;;;5.68;;
17141;SDS011;32805;53.556;9.944;2023-07-24T11:59:30;6.55;;;5.95;;
17141;SDS011;32805;53.556;9.944;2023-07-24T12:02:05;5.97;;;5.20;;
17141;SDS011;32805;53.556;9.944;2023-07-24T12:04:37;5.90;;;5.40;;
17141;SDS011;32805;53.556;9.944;2023-07-24T12:07:08;6.75;;;6.25;;
17141;SDS011;32805;53.556;9.944;2023-07-24T12:09:36;6.07;;;5.47;;
17141;SDS011;32805;53.556;9.944;2023-07-24T12:12:04;6.53;;;5.93;;
17141;SDS011;32805;53.556;9.944;2023-07-24T12:14:32;8.95;;;6.00;;
17141;SDS011;32805;53.556;9.944;2023-07-24T12:17:00;6.50;;;5.90;;
17141;SDS011;32805;53.556;9.944;2023-07-24T12:19:28;5.90;;;5.32;;
17141;SDS011;32805;53.556;9.944;2023-07-24T12:21:57;6.03;;;5.53;;
17141;SDS011;32805;53.556;9.944;2023-07-24T12:24:26;6.97;;;6.28;;
17141;SDS011;32805;53.556;9.944;2023-07-24T12:26:53;6.57;;;5.97;;
17141;SDS011;32805;53.556;9.944;2023-07-24T12:29:21;6.03;;;5.43;;
17141;SDS011;32805;53.556;9.944;2023-07-24T12:31:49;5.32;;;4.88;;
17141;SDS011;32805;53.556;9.944;2023-07-24T12:34:17;5.35;;;4.95;;
17141;SDS011;32805;53.556;9.944;2023-07-24T12:36:44;5.35;;;4.88;;
17141;SDS011;32805;53.556;9.944;2023-07-24T12:39:13;5.30;;;4.80;;
17141;SDS011;32805;53.556;9.944;2023-07-24T12:41:42;5.63;;;5.15;;
17141;SDS011;32805;53.556;9.944;2023-07-24T12:44:10;5.65;;;5.05;;
17141;SDS011;32805;53.556;9.944;2023-07-24T12:46:38;5.07;;;4.68;;
17141;SDS011;32805;53.556;9.944;2023-07-24T12:49:06;5.65;;;5.15;;
17141;SDS011;32805;53.556;9.944;2023-07-24T12:51:33;6.25;;;5.43;;
17141;SDS011;32805;53.556;9.944;2023-07-24T12:54:01;5.72;;;4.63;;
17141;SDS011;32805;53.556;9.944;2023-07-24T12:56:44;5.63;;;5.22;;
17141;SDS011;32805;53.556;9.944;2023-07-24T12:59:12;5.80;;;5.20;;
17141;SDS011;32805;53.556;9.944;2023-07-24T13:01:40;6.82;;;4.90;;
17141;SDS011;32805;53.556;9.944;2023-07-24T13:04:07;5.88;;;5.38;;
17141;SDS011;32805;53.556;9.944;2023-07-24T13:06:36;5.88;;;5.30;;
17141;SDS011;32805;53.556;9.944;2023-07-24T13:09:03;5.53;;;5.03;;
17141;SDS011;32805;53.556;9.944;2023-07-24T13:11:39;6.82;;;5.28;;
17141;SDS011;32805;53.556;9.944;2023-07-24T13:14:08;6.72;;;6.10;;
17141;SDS011;32805;53.556;9.944;2023-07-24T13:16:36;5.65;;;5.20;;
17141;SDS011;32805;53.556;9.944;2023-07-24T13:19:03;5.18;;;4.78;;
17141;SDS011;32805;53.556;9.944;2023-07-24T13:21:31;4.78;;;4.32;;
17141;SDS011;32805;53.556;9.944;2023-07-24T13:23:59;4.80;;;4.40;;
17141;SDS011;32805;53.556;9.944;2023-07-24T13:26:27;4.63;;;4.22;;
17141;SDS011;32805;53.556;9.944;2023-07-24T13:28:55;4.50;;;4.10;;
17141;SDS011;32805;53.556;9.944;2023-07-24T13:31:24;4.57;;;4.22;;
17141;SDS011;32805;53.556;9.944;2023-07-24T13:33:55;4.45;;;4.05;;
17141;SDS011;32805;53.556;9.944;2023-07-24T13:36:22;6.95;;;4.40;;
17141;SDS011;32805;53.556;9.944;2023-07-24T13:38:50;4.07;;;3.78;;
17141;SDS011;32805;53.556;9.944;2023-07-24T13:41:18;5.13;;;4.63;;
17141;SDS011;32805;53.556;9.944;2023-07-24T13:43:46;5.28;;;4.78;;
17141;SDS011;32805;53.556;9.944;2023-07-24T13:46:14;5.05;;;4.65;;
17141;SDS011;32805;53.556;9.944;2023-07-24T13:48:43;4.82;;;4.43;;
17141;SDS011;32805;53.556;9.944;2023-07-24T13:51:11;5.22;;;4.18;;
17141;SDS011;32805;53.556;9.944;2023-07-24T13:53:38;4.70;;;4.20;;
17141;SDS011;32805;53.556;9.944;2023-07-24T13:56:06;5.50;;;4.40;;
17141;SDS011;32805;53.556;9.944;2023-07-24T13:58:34;4.88;;;4.47;;
17141;SDS011;32805;53.556;9.944;2023-07-24T14:01:01;5.28;;;4.13;;
17141;SDS011;32805;53.556;9.944;2023-07-24T14:03:29;6.63;;;4.80;;
17141;SDS011;32805;53.556;9.944;2023-07-24T14:05:58;4.63;;;4.22;;
17141;SDS011;32805;53.556;9.944;2023-07-24T14:08:26;5.63;;;4.30;;
17141;SDS011;32805;53.556;9.944;2023-07-24T14:10:53;4.43;;;4.00;;
17141;SDS011;32805;53.556;9.944;2023-07-24T14:13:22;5.68;;;5.18;;
17141;SDS011;32805;53.556;9.944;2023-07-24T14:15:49;4.65;;;4.25;;
17141;SDS011;32805;53.556;9.944;2023-07-24T14:18:17;4.85;;;4.35;;
17141;SDS011;32805;53.556;9.944;2023-07-24T14:20:45;4.97;;;4.47;;
17141;SDS011;32805;53.556;9.944;2023-07-24T14:23:14;6.20;;;4.38;;
17141;SDS011;32805;53.556;9.944;2023-07-24T14:25:42;4.90;;;4.28;;
17141;SDS011;32805;53.556;9.944;2023-07-24T14:28:10;4.35;;;3.95;;
17141;SDS011;32805;53.556;9.944;2023-07-24T14:30:37;5.20;;;4.57;;
17141;SDS011;32805;53.556;9.944;2023-07-24T14:33:05;5.78;;;4.60;;
17141;SDS011;32805;53.556;9.944;2023-07-24T14:35:33;5.38;;;4.35;;
17141;SDS011;32805;53.556;9.944;2023-07-24T14:38:01;4.65;;;4.25;;
17141;SDS011;32805;53.556;9.944;2023-07-24T14:40:30;5.20;;;4.70;;
17141;SDS011;32805;53.556;9.944;2023-07-24T14:42:57;6.15;;;4.00;;
17141;SDS011;32805;53.556;9.944;2023-07-24T14:45:25;4.90;;;4.50;;
17141;SDS011;32805;53.556;9.944;2023-07-24T14:47:53;4.70;;;4.30;;
17141;SDS011;32805;53.556;9.944;2023-07-24T14:50:20;5.53;;;4.82;;
17141;SDS011;32805;53.556;9.944;2023-07-24T14:52:48;6.32;;;5.68;;
17141;SDS011;32805;53.556;9.944;2023-07-24T14:55:16;5.93;;;5.35;;
17141;SDS011;32805;53.556;9.944;2023-07-24T14:57:45;7.40;;;5.38;;
17141;SDS011;32805;53.556;9.944;2023-07-24T15:00:13;5.88;;;5.38;;